Time;durP1;ratioP1;P1;durP2;ratioP2;P2;SDS_P1;SDS_P2;PMS_P1;PMS_P2;Temp;Humidity;BMP_temperature;BMP_pressure;BME280_temperature;BME280_humidity;BME280_pressure;Samples;Min_cycle;Max_cycle;Signal;HPM_P1;HPM_P2
2022/10/11 00:00:58;;;;;;;17.27;15.67;;;6.20;99.90;;;;;;5024077;28;20461;-67
2022/10/11 00:03:25;;;;;;;17.23;15.20;;;6.10;99.90;;;;;;5022094;28;20462;-67
2022/10/11 00:05:53;;;;;;;17.30;15.60;;;6.00;99.90;;;;;;5025010;28;20937;-68
2022/10/11 00:08:20;;;;;;;17.97;16.57;;;5.90;99.90;;;;;;5026521;28;20511;-68
2022/10/11 00:10:57;;;;;;;17.93;16.00;;;5.90;99.90;;;;;;5026279;28;20470;-68
2022/10/11 00:13:25;;;;;;;17.90;16.20;;;5.90;99.90;;;;;;5027105;28;20504;-68
2022/10/11 00:15:52;;;;;;;17.23;15.60;;;5.90;99.90;;;;;;5023458;28;20473;-68
2022/10/11 00:18:19;;;;;;;17.90;16.00;;;5.90;99.90;;;;;;5023490;28;20509;-68
2022/10/11 00:20:46;;;;;;;17.37;15.70;;;5.80;99.90;;;;;;5028649;28;20492;-68
2022/10/11 00:23:13;;;;;;;16.90;15.70;;;5.70;99.90;;;;;;5022508;28;20468;-68
2022/10/11 00:25:40;;;;;;;16.60;15.10;;;5.70;99.90;;;;;;5025753;28;20669;-68
2022/10/11 00:28:07;;;;;;;19.87;17.80;;;5.70;99.90;;;;;;5024415;28;21015;-68
2022/10/11 00:30:35;;;;;;;28.33;16.37;;;5.70;99.90;;;;;;5025286;28;20878;-67
2022/10/11 00:33:03;;;;;;;17.77;16.10;;;5.70;99.90;;;;;;5023842;28;20469;-67
2022/10/11 00:35:30;;;;;;;24.90;16.60;;;5.70;99.90;;;;;;5026009;28;20469;-68
2022/10/11 00:37:57;;;;;;;26.90;17.07;;;5.60;99.90;;;;;;5025351;28;20493;-69
2022/10/11 00:40:24;;;;;;;20.23;15.70;;;5.50;99.90;;;;;;5018973;28;20869;-69
2022/10/11 00:42:50;;;;;;;16.87;15.50;;;5.40;99.90;;;;;;5023934;28;20493;-67
2022/10/11 00:46:00;;;;;;;18.00;16.27;;;5.40;99.90;;;;;;5021557;28;20466;-67
2022/10/11 00:48:35;;;;;;;17.60;15.90;;;5.40;99.90;;;;;;5020079;28;20484;-68
2022/10/11 00:51:07;;;;;;;16.80;15.53;;;5.30;99.90;;;;;;5019061;28;20457;-67
2022/10/11 00:56:20;;;;;;;17.27;15.70;;;5.30;99.90;;;;;;5022984;28;20476;-67
2022/10/11 00:58:48;;;;;;;17.43;16.17;;;5.20;99.90;;;;;;5023439;28;20498;-68
2022/10/11 01:01:16;;;;;;;16.67;15.37;;;5.10;99.90;;;;;;5022348;28;20461;-68
2022/10/11 01:03:44;;;;;;;18.40;16.57;;;5.10;99.90;;;;;;5020933;28;20476;-67
2022/10/11 01:06:12;;;;;;;17.77;16.37;;;5.00;99.90;;;;;;5023352;28;20523;-67
2022/10/11 01:08:38;;;;;;;18.97;17.00;;;5.00;99.90;;;;;;5021575;28;20465;-67
2022/10/11 01:11:06;;;;;;;17.50;15.77;;;4.90;99.90;;;;;;5022601;28;20468;-68
2022/10/11 01:13:46;;;;;;;17.57;16.13;;;5.00;99.90;;;;;;5026076;28;20488;-67
2022/10/11 01:16:18;;;;;;;17.17;15.87;;;5.00;99.90;;;;;;5024667;28;20572;-67
2022/10/11 01:18:51;;;;;;;17.53;16.23;;;4.90;99.90;;;;;;5019617;28;20500;-67
2022/10/11 01:21:29;;;;;;;17.77;16.10;;;4.90;99.90;;;;;;5022576;28;20508;-67
2022/10/11 01:24:23;;;;;;;17.23;16.13;;;4.90;99.90;;;;;;5022952;28;20473;-67
2022/10/11 01:27:32;;;;;;;17.70;16.40;;;4.90;99.90;;;;;;5022213;28;20465;-67
2022/10/11 01:30:23;;;;;;;17.30;15.47;;;4.80;99.90;;;;;;5019867;28;20514;-67
2022/10/11 01:33:09;;;;;;;17.10;15.90;;;4.80;99.90;;;;;;5022816;28;20567;-67
2022/10/11 01:35:41;;;;;;;17.40;16.10;;;4.80;99.90;;;;;;5022733;28;20497;-67
2022/10/11 01:38:13;;;;;;;17.17;15.97;;;4.80;99.90;;;;;;5022239;28;20475;-68
2022/10/11 01:40:45;;;;;;;17.40;16.00;;;4.80;99.90;;;;;;5024572;28;20868;-69
2022/10/11 01:43:14;;;;;;;17.10;15.87;;;4.80;99.90;;;;;;5025872;28;20468;-69
2022/10/11 01:45:44;;;;;;;17.23;15.70;;;4.80;99.90;;;;;;5018629;28;20537;-67
2022/10/11 01:48:12;;;;;;;26.10;19.07;;;4.80;99.90;;;;;;5015875;28;21450;-66
2022/10/11 01:50:43;;;;;;;19.97;17.87;;;4.90;99.90;;;;;;5025296;28;20465;-69
2022/10/11 01:53:41;;;;;;;179.40;22.10;;;4.90;99.90;;;;;;5024088;28;20460;-68
2022/10/11 01:56:25;;;;;;;30.53;18.27;;;5.00;99.90;;;;;;4990149;28;20464;-67
2022/10/11 01:59:05;;;;;;;18.60;16.70;;;5.20;99.90;;;;;;5021925;28;20984;-68
2022/10/11 02:01:41;;;;;;;20.67;17.80;;;5.20;99.90;;;;;;5022552;28;20467;-66
2022/10/11 02:04:17;;;;;;;21.27;19.00;;;5.20;99.90;;;;;;5019486;28;20559;-67
2022/10/11 02:06:56;;;;;;;19.57;18.10;;;5.20;99.90;;;;;;5018907;28;20853;-67
2022/10/11 02:09:29;;;;;;;23.90;17.93;;;5.30;99.90;;;;;;5022943;28;20496;-67
2022/10/11 02:12:02;;;;;;;19.50;17.80;;;5.20;99.90;;;;;;5022015;28;20968;-67
2022/10/11 02:14:34;;;;;;;28.27;18.00;;;5.20;99.90;;;;;;5022969;28;20476;-66
2022/10/11 02:17:06;;;;;;;23.43;20.27;;;5.20;99.90;;;;;;5020375;28;20468;-67
2022/10/11 02:19:38;;;;;;;59.33;22.07;;;5.20;99.90;;;;;;5023008;28;21056;-68
2022/10/11 02:22:09;;;;;;;21.50;18.17;;;5.40;99.90;;;;;;5024469;28;20552;-65
2022/10/11 02:24:39;;;;;;;19.87;18.10;;;5.50;99.90;;;;;;5021019;28;20585;-69
2022/10/11 02:27:08;;;;;;;22.33;18.73;;;5.50;99.90;;;;;;5023799;28;20978;-66
2022/10/11 02:29:39;;;;;;;19.67;17.97;;;5.40;99.90;;;;;;5025013;28;21098;-68
2022/10/11 02:32:09;;;;;;;18.63;17.10;;;5.30;99.90;;;;;;5025172;28;20515;-66
2022/10/11 02:34:40;;;;;;;18.27;16.93;;;5.20;99.90;;;;;;5024238;28;20469;-68
2022/10/11 02:37:16;;;;;;;18.17;16.80;;;5.10;99.90;;;;;;5020393;28;20463;-68
2022/10/11 02:39:47;;;;;;;17.53;16.37;;;5.10;99.90;;;;;;5018188;28;20762;-67
2022/10/11 02:42:18;;;;;;;19.10;17.80;;;5.00;99.90;;;;;;5022544;28;20465;-67
2022/10/11 02:44:58;;;;;;;19.17;17.63;;;5.00;99.90;;;;;;5019780;28;20475;-69
2022/10/11 02:47:27;;;;;;;19.27;17.53;;;5.10;99.90;;;;;;5021241;28;20937;-69
2022/10/11 02:49:54;;;;;;;21.80;19.70;;;5.10;99.90;;;;;;5023266;28;20857;-68
2022/10/11 02:52:20;;;;;;;20.47;18.83;;;5.10;99.90;;;;;;5015725;28;20480;-68
2022/10/11 02:54:47;;;;;;;19.03;17.50;;;5.10;99.90;;;;;;5020305;28;20495;-68
2022/10/11 02:57:14;;;;;;;19.17;17.93;;;5.00;99.90;;;;;;5025266;28;20462;-67
2022/10/11 02:59:41;;;;;;;20.67;18.93;;;4.90;99.90;;;;;;5022481;28;20480;-67
2022/10/11 03:02:08;;;;;;;19.20;17.80;;;4.80;99.90;;;;;;5019626;28;20458;-66
2022/10/11 03:04:37;;;;;;;19.50;18.07;;;4.80;99.90;;;;;;5025001;28;20878;-67
2022/10/11 03:07:04;;;;;;;20.33;18.83;;;4.80;99.90;;;;;;5018759;28;20818;-68
2022/10/11 03:09:30;;;;;;;19.80;18.40;;;4.80;99.90;;;;;;5025298;28;20459;-67
2022/10/11 03:11:58;;;;;;;20.80;19.30;;;4.80;99.90;;;;;;5021090;28;20519;-68
2022/10/11 03:14:25;;;;;;;19.60;18.23;;;4.80;99.90;;;;;;5024694;28;20963;-66
2022/10/11 03:16:52;;;;;;;18.97;17.87;;;4.80;99.90;;;;;;5025495;28;20471;-66
2022/10/11 03:19:19;;;;;;;20.07;18.60;;;4.80;99.90;;;;;;5027444;28;20907;-68
2022/10/11 03:21:47;;;;;;;19.63;18.40;;;4.70;99.90;;;;;;5023574;28;20464;-66
2022/10/11 03:24:15;;;;;;;21.30;19.60;;;4.60;99.90;;;;;;5029750;28;20815;-67
2022/10/11 03:26:42;;;;;;;20.60;19.10;;;4.60;99.90;;;;;;5025181;28;20491;-66
2022/10/11 03:29:08;;;;;;;21.93;19.80;;;4.70;99.90;;;;;;5024563;28;20489;-67
2022/10/11 03:31:35;;;;;;;20.00;18.20;;;4.60;99.90;;;;;;5025106;28;21064;-67
2022/10/11 03:34:03;;;;;;;22.10;20.27;;;4.60;99.90;;;;;;5026875;28;20855;-69
2022/10/11 03:36:30;;;;;;;21.47;19.23;;;4.60;99.90;;;;;;5022751;28;20464;-67
2022/10/11 03:38:59;;;;;;;21.23;19.03;;;4.70;99.90;;;;;;5024153;28;20481;-67
2022/10/11 03:41:26;;;;;;;26.40;18.93;;;4.70;99.90;;;;;;5027786;28;20565;-69
2022/10/11 03:43:53;;;;;;;22.17;20.10;;;4.60;99.90;;;;;;5025830;28;20475;-69
2022/10/11 03:46:21;;;;;;;19.67;18.07;;;4.50;99.90;;;;;;5022027;28;20469;-67
2022/10/11 03:48:48;;;;;;;19.97;18.67;;;4.50;99.90;;;;;;5028029;28;20464;-66
2022/10/11 03:51:15;;;;;;;21.70;19.90;;;4.40;99.90;;;;;;5024475;28;20456;-66
2022/10/11 03:53:41;;;;;;;21.30;19.53;;;4.40;99.90;;;;;;5025853;28;20464;-68
2022/10/11 03:56:10;;;;;;;21.83;20.10;;;4.30;99.90;;;;;;5019847;28;20652;-68
2022/10/11 03:58:39;;;;;;;57.43;21.40;;;4.30;99.90;;;;;;5023747;28;20461;-66
2022/10/11 04:01:06;;;;;;;23.60;21.03;;;4.20;99.90;;;;;;5022731;28;20818;-68
2022/10/11 04:03:34;;;;;;;23.47;21.03;;;4.30;99.90;;;;;;5022892;28;20467;-68
2022/10/11 04:06:00;;;;;;;41.47;21.87;;;4.40;99.90;;;;;;5027031;28;20817;-67
2022/10/11 04:08:27;;;;;;;22.57;20.63;;;4.40;99.90;;;;;;5024698;28;20566;-66
2022/10/11 04:10:54;;;;;;;23.07;21.10;;;4.30;99.90;;;;;;5021469;28;20464;-68
2022/10/11 04:13:23;;;;;;;22.80;21.10;;;4.20;99.90;;;;;;5021137;28;20945;-67
2022/10/11 04:15:50;;;;;;;24.67;22.73;;;4.20;99.90;;;;;;5026300;28;20493;-69
2022/10/11 04:18:16;;;;;;;24.87;22.87;;;4.20;99.90;;;;;;5023440;28;20470;-68
2022/10/11 04:20:43;;;;;;;26.30;24.00;;;4.20;99.90;;;;;;5018852;28;20496;-67
2022/10/11 04:23:10;;;;;;;25.13;22.73;;;4.20;99.90;;;;;;5019052;28;20471;-68
2022/10/11 04:25:38;;;;;;;30.57;27.67;;;4.20;99.90;;;;;;5025634;28;20468;-68
2022/10/11 04:28:06;;;;;;;25.80;23.60;;;4.20;99.90;;;;;;5020345;28;21022;-68
2022/10/11 04:30:35;;;;;;;25.40;23.17;;;4.10;99.90;;;;;;5022925;28;20984;-66
2022/10/11 04:33:02;;;;;;;24.90;22.93;;;4.00;99.90;;;;;;5022698;28;20846;-67
2022/10/11 04:35:29;;;;;;;24.97;22.77;;;4.00;99.90;;;;;;5022435;28;20848;-68
2022/10/11 04:37:55;;;;;;;25.87;23.20;;;3.90;99.90;;;;;;5018118;28;20955;-68
2022/10/11 04:40:22;;;;;;;24.33;22.73;;;3.90;99.90;;;;;;5023096;28;20487;-68
2022/10/11 04:42:52;;;;;;;25.33;23.10;;;3.80;99.90;;;;;;5026010;28;20472;-66
2022/10/11 04:45:19;;;;;;;24.30;22.50;;;3.80;99.90;;;;;;5018556;28;20568;-67
2022/10/11 04:47:48;;;;;;;148.20;68.13;;;3.80;99.90;;;;;;5022277;28;20464;-66
2022/10/11 04:50:15;;;;;;;124.83;85.03;;;3.80;99.90;;;;;;5025104;28;22992;-67
2022/10/11 04:52:42;;;;;;;109.10;82.23;;;4.00;99.90;;;;;;5025843;28;20460;-67
2022/10/11 04:55:09;;;;;;;38.73;35.20;;;4.00;99.90;;;;;;5021861;28;21051;-66
2022/10/11 04:57:36;;;;;;;26.67;24.50;;;4.10;99.90;;;;;;5019794;28;20473;-68
2022/10/11 05:00:04;;;;;;;26.40;24.50;;;4.20;99.90;;;;;;5023878;28;20496;-67
2022/10/11 05:02:31;;;;;;;77.33;63.13;;;4.20;99.90;;;;;;5016515;28;20511;-68
2022/10/11 05:05:00;;;;;;;29.57;27.03;;;4.30;99.90;;;;;;5027282;28;20476;-68
2022/10/11 05:07:26;;;;;;;25.00;23.00;;;4.30;99.90;;;;;;5023209;28;20491;-66
2022/10/11 05:09:53;;;;;;;31.30;28.70;;;4.30;99.90;;;;;;5020363;28;20531;-67
2022/10/11 05:12:20;;;;;;;26.53;24.33;;;4.20;99.90;;;;;;5017726;28;20725;-65
2022/10/11 05:14:47;;;;;;;26.17;23.83;;;4.10;99.90;;;;;;5019174;28;20678;-68
2022/10/11 05:17:14;;;;;;;29.13;26.27;;;4.00;99.90;;;;;;5015729;28;21388;-65
2022/10/11 05:19:41;;;;;;;31.60;25.70;;;3.90;99.90;;;;;;5018115;28;20481;-68
2022/10/11 05:22:09;;;;;;;26.67;24.17;;;3.80;99.90;;;;;;5023682;28;20952;-67
2022/10/11 05:24:37;;;;;;;26.40;24.10;;;3.70;99.90;;;;;;5022340;28;20814;-67
2022/10/11 05:27:04;;;;;;;26.53;23.77;;;3.60;99.90;;;;;;5023260;28;20888;-67
2022/10/11 05:29:31;;;;;;;28.43;25.83;;;3.60;99.90;;;;;;5022138;28;20567;-65
2022/10/11 05:31:58;;;;;;;35.40;25.87;;;3.60;99.90;;;;;;5012651;28;20456;-67
2022/10/11 05:34:24;;;;;;;28.30;25.70;;;3.60;99.90;;;;;;5022433;28;20453;-66
2022/10/11 05:36:51;;;;;;;28.77;25.50;;;3.60;99.90;;;;;;5021731;28;20515;-67
2022/10/11 05:39:19;;;;;;;27.90;25.30;;;3.50;99.90;;;;;;5021352;28;20522;-67
2022/10/11 05:41:46;;;;;;;27.77;25.07;;;3.50;99.90;;;;;;5020803;28;20457;-68
2022/10/11 05:44:13;;;;;;;25.80;23.80;;;3.50;99.90;;;;;;5023509;28;20456;-66
2022/10/11 05:46:40;;;;;;;27.73;25.43;;;3.50;99.90;;;;;;5023233;28;20472;-68
2022/10/11 05:49:07;;;;;;;26.63;24.53;;;3.40;99.90;;;;;;5025038;28;20465;-67
2022/10/11 05:51:34;;;;;;;33.60;29.83;;;3.40;99.90;;;;;;5020261;28;20460;-66
2022/10/11 05:54:01;;;;;;;32.77;29.40;;;3.50;99.90;;;;;;5023843;28;20461;-66
2022/10/11 05:56:29;;;;;;;31.03;28.00;;;3.50;99.90;;;;;;5021895;28;20464;-66
2022/10/11 05:58:56;;;;;;;28.27;25.70;;;3.50;99.90;;;;;;5025621;28;20464;-66
2022/10/11 06:01:25;;;;;;;28.23;26.00;;;3.50;99.90;;;;;;5016919;28;20872;-67
2022/10/11 06:03:53;;;;;;;31.93;28.93;;;3.50;99.90;;;;;;5021155;28;20947;-67
2022/10/11 06:06:20;;;;;;;31.33;28.43;;;3.50;99.90;;;;;;5018958;28;20460;-66
2022/10/11 06:08:47;;;;;;;28.17;25.13;;;3.60;99.90;;;;;;5022184;28;20468;-66
2022/10/11 06:11:16;;;;;;;28.40;26.10;;;3.60;99.90;;;;;;5018926;28;20998;-67
2022/10/11 06:13:45;;;;;;;28.97;25.63;;;3.70;99.90;;;;;;5020979;28;20487;-67
2022/10/11 06:16:13;;;;;;;26.97;24.87;;;3.70;99.90;;;;;;5015311;28;20456;-67
2022/10/11 06:18:40;;;;;;;29.20;26.63;;;3.70;99.90;;;;;;5016577;28;20492;-67
2022/10/11 06:21:07;;;;;;;31.40;27.50;;;3.70;99.90;;;;;;5021605;28;20970;-68
2022/10/11 06:23:34;;;;;;;27.20;24.90;;;3.70;99.90;;;;;;5019003;28;20822;-68
2022/10/11 06:26:05;;;;;;;32.70;29.70;;;3.70;99.90;;;;;;5018650;28;20461;-68
2022/10/11 06:28:32;;;;;;;28.20;25.80;;;3.80;99.90;;;;;;5023079;28;20492;-67
2022/10/11 06:31:01;;;;;;;27.57;25.37;;;3.80;99.90;;;;;;5020925;28;20992;-65
2022/10/11 06:33:30;;;;;;;26.53;24.33;;;3.90;99.90;;;;;;5019099;28;20647;-66
2022/10/11 06:35:58;;;;;;;27.53;25.23;;;4.00;99.90;;;;;;5020474;28;20483;-67
2022/10/11 06:38:25;;;;;;;26.20;24.17;;;4.10;99.90;;;;;;5023771;28;20563;-68
2022/10/11 06:40:53;;;;;;;26.33;24.00;;;4.10;99.90;;;;;;5014697;28;20750;-67
2022/10/11 06:43:20;;;;;;;25.47;23.20;;;4.10;99.90;;;;;;5019972;28;20578;-67
2022/10/11 06:45:46;;;;;;;26.00;24.13;;;4.10;99.90;;;;;;5022134;28;20465;-68
2022/10/11 06:48:15;;;;;;;26.13;24.23;;;4.20;99.90;;;;;;5023243;28;20458;-68
2022/10/11 06:50:42;;;;;;;26.23;24.03;;;4.20;99.90;;;;;;5018949;28;20950;-66
2022/10/11 06:53:09;;;;;;;25.93;23.77;;;4.30;99.90;;;;;;5019027;28;20869;-67
2022/10/11 06:55:36;;;;;;;25.90;23.57;;;4.40;99.90;;;;;;5016916;28;20880;-68
2022/10/11 06:58:03;;;;;;;27.10;24.80;;;4.50;99.90;;;;;;5019733;28;20473;-67
2022/10/11 07:00:30;;;;;;;26.27;24.07;;;4.50;99.90;;;;;;5020452;28;20504;-66
2022/10/11 07:02:57;;;;;;;24.83;22.80;;;4.70;99.90;;;;;;5018631;28;20555;-66
2022/10/11 07:05:25;;;;;;;27.77;25.07;;;4.90;99.90;;;;;;5019980;28;20870;-67
2022/10/11 07:07:52;;;;;;;25.77;23.77;;;5.10;99.90;;;;;;5018262;28;20891;-68
2022/10/11 07:10:19;;;;;;;26.40;24.27;;;5.20;99.90;;;;;;5016787;28;20468;-67
2022/10/11 07:12:45;;;;;;;27.80;25.13;;;5.40;99.90;;;;;;5014574;28;20484;-65
2022/10/11 07:15:12;;;;;;;28.40;26.00;;;5.50;99.90;;;;;;5013389;28;21081;-67
2022/10/11 07:17:41;;;;;;;26.87;24.57;;;5.70;99.90;;;;;;5015571;28;20818;-67
2022/10/11 07:20:08;;;;;;;28.30;25.90;;;5.80;99.90;;;;;;5015151;28;20957;-66
2022/10/11 07:22:37;;;;;;;29.13;26.40;;;5.80;99.90;;;;;;5022344;28;20870;-66
2022/10/11 07:25:05;;;;;;;29.10;26.40;;;5.80;99.90;;;;;;5019775;28;20460;-67
2022/10/11 07:27:32;;;;;;;31.60;28.90;;;5.90;99.90;;;;;;5019040;28;20549;-67
2022/10/11 07:29:59;;;;;;;34.47;31.33;;;6.10;99.90;;;;;;5019228;28;20467;-66
2022/10/11 07:32:27;;;;;;;30.27;27.97;;;6.20;99.90;;;;;;5010433;28;20657;-67
2022/10/11 07:34:54;;;;;;;28.10;25.90;;;6.40;99.90;;;;;;5013474;28;21030;-68
2022/10/11 07:37:21;;;;;;;27.13;24.97;;;6.60;99.90;;;;;;5018083;28;20896;-67
2022/10/11 07:39:50;;;;;;;26.10;23.90;;;6.80;99.90;;;;;;5019010;28;20526;-68
2022/10/11 07:42:18;;;;;;;26.43;24.07;;;6.90;99.90;;;;;;5018584;28;20976;-69
2022/10/11 07:44:45;;;;;;;27.10;24.67;;;7.10;99.90;;;;;;5015787;28;20457;-66
2022/10/11 07:47:12;;;;;;;61.67;45.20;;;7.30;99.90;;;;;;5017324;28;20956;-69
2022/10/11 07:49:40;;;;;;;35.30;30.80;;;7.50;99.90;;;;;;5021118;28;21073;-69
2022/10/11 07:52:06;;;;;;;29.40;26.40;;;7.60;99.90;;;;;;5019486;28;20467;-68
2022/10/11 07:54:33;;;;;;;31.90;25.40;;;7.80;99.90;;;;;;5016403;28;20471;-69
2022/10/11 07:57:02;;;;;;;28.50;25.80;;;7.90;99.90;;;;;;5016157;28;20606;-70
2022/10/11 07:59:29;;;;;;;35.73;26.73;;;8.00;99.90;;;;;;5020097;28;20547;-68
2022/10/11 08:01:56;;;;;;;30.70;26.90;;;8.10;99.90;;;;;;5021968;28;20523;-68
2022/10/11 08:04:22;;;;;;;63.17;46.67;;;8.20;99.90;;;;;;5020176;28;20973;-67
2022/10/11 08:06:49;;;;;;;138.63;91.90;;;8.30;99.90;;;;;;5018714;28;21111;-68
2022/10/11 08:09:16;;;;;;;29.50;26.80;;;8.40;99.90;;;;;;5024405;28;20490;-68
2022/10/11 08:11:43;;;;;;;28.07;25.17;;;8.50;99.90;;;;;;5021368;28;20471;-70
2022/10/11 08:14:11;;;;;;;41.77;36.23;;;8.60;99.90;;;;;;5018534;28;20939;-68
2022/10/11 08:16:39;;;;;;;28.10;25.70;;;8.80;99.90;;;;;;5022923;28;20471;-68
2022/10/11 08:19:06;;;;;;;30.43;25.37;;;8.90;99.90;;;;;;5022806;28;20463;-67
2022/10/11 08:21:33;;;;;;;33.70;29.50;;;8.90;99.90;;;;;;5023532;28;20500;-68
2022/10/11 08:24:02;;;;;;;31.17;24.60;;;9.00;99.90;;;;;;5021078;28;20579;-68
2022/10/11 08:26:29;;;;;;;74.77;60.43;;;9.10;99.90;;;;;;5024362;28;20452;-68
2022/10/11 08:28:57;;;;;;;27.03;24.40;;;9.20;99.90;;;;;;5023541;28;20570;-69
2022/10/11 08:31:25;;;;;;;28.67;25.77;;;9.30;99.90;;;;;;5018622;28;20994;-68
2022/10/11 08:33:52;;;;;;;74.00;49.07;;;9.40;99.90;;;;;;5019746;28;20867;-71
2022/10/11 08:36:19;;;;;;;37.97;29.00;;;9.40;99.90;;;;;;5017694;28;20557;-70
2022/10/11 08:38:46;;;;;;;35.00;27.63;;;9.50;99.90;;;;;;5019438;28;20476;-68
2022/10/11 08:41:27;;;;;;;34.00;28.07;;;9.60;99.90;;;;;;5020272;28;20489;-70
2022/10/11 08:44:04;;;;;;;36.47;29.93;;;9.70;99.90;;;;;;5017772;28;20515;-69
2022/10/11 08:46:36;;;;;;;34.70;26.53;;;9.80;99.90;;;;;;5018763;28;20860;-69
2022/10/11 08:49:08;;;;;;;33.77;26.53;;;9.90;99.90;;;;;;5020695;28;20500;-69
2022/10/11 08:51:41;;;;;;;39.53;27.70;;;10.00;99.90;;;;;;5021924;28;20591;-71
2022/10/11 08:54:14;;;;;;;30.10;26.60;;;10.10;99.90;;;;;;5010093;28;20468;-68
2022/10/11 08:56:42;;;;;;;34.80;26.07;;;10.20;99.90;;;;;;5011693;28;20842;-70
2022/10/11 08:59:26;;;;;;;57.23;40.87;;;10.20;99.90;;;;;;5020501;28;20960;-69
2022/10/11 09:02:03;;;;;;;34.80;27.50;;;10.20;99.90;;;;;;5018874;28;20586;-71
2022/10/11 09:04:31;;;;;;;36.03;29.40;;;10.20;99.90;;;;;;5024972;28;20548;-69
2022/10/11 09:07:04;;;;;;;53.43;32.37;;;10.30;99.90;;;;;;5020079;28;20749;-71
2022/10/11 09:09:47;;;;;;;49.57;28.10;;;10.30;99.90;;;;;;5018232;28;20945;-71
2022/10/11 09:12:18;;;;;;;30.50;26.27;;;10.40;99.90;;;;;;5016134;28;20526;-69
2022/10/11 09:15:01;;;;;;;34.40;25.40;;;10.50;99.90;;;;;;5019456;28;20495;-67
2022/10/11 09:17:44;;;;;;;26.93;24.27;;;10.50;99.90;;;;;;5023603;28;20472;-71
2022/10/11 09:20:30;;;;;;;38.40;27.67;;;10.70;99.90;;;;;;5015404;28;20901;-68
2022/10/11 09:23:03;;;;;;;39.73;26.77;;;10.70;99.90;;;;;;5019767;28;20465;-68
2022/10/11 09:25:34;;;;;;;29.10;26.30;;;10.70;99.90;;;;;;5021411;28;20868;-68
2022/10/11 09:28:12;;;;;;;33.77;29.20;;;10.90;99.90;;;;;;5020481;28;20484;-68
2022/10/11 09:30:47;;;;;;;36.37;29.20;;;11.00;99.90;;;;;;5019739;28;21240;-69
2022/10/11 09:33:19;;;;;;;31.20;28.00;;;11.10;99.90;;;;;;5016677;28;20565;-68
2022/10/11 09:35:48;;;;;;;40.77;35.20;;;11.30;99.90;;;;;;5021523;28;20546;-71
2022/10/11 09:38:24;;;;;;;47.60;38.03;;;11.40;99.90;;;;;;5021666;28;20492;-68
2022/10/11 09:41:02;;;;;;;50.03;38.53;;;11.50;99.90;;;;;;5023043;28;20487;-68
2022/10/11 09:43:30;;;;;;;53.37;40.50;;;11.70;99.90;;;;;;5021018;28;20471;-69
2022/10/11 09:45:57;;;;;;;44.40;36.03;;;11.70;99.90;;;;;;5020963;28;20476;-68
2022/10/11 09:48:30;;;;;;;50.03;37.83;;;11.80;99.90;;;;;;5014697;28;20468;-71
2022/10/11 09:51:02;;;;;;;45.67;39.60;;;12.00;99.90;;;;;;5021832;28;20468;-70
2022/10/11 09:53:55;;;;;;;48.07;36.93;;;12.30;99.90;;;;;;5017752;28;20901;-71
2022/10/11 09:56:24;;;;;;;47.30;33.00;;;12.80;99.90;;;;;;5021334;28;20464;-69
2022/10/11 09:59:08;;;;;;;41.67;32.20;;;13.60;99.90;;;;;;5021389;28;20456;-68
2022/10/11 10:01:35;;;;;;;43.40;30.17;;;14.40;99.90;;;;;;5012707;28;20554;-70
2022/10/11 10:04:10;;;;;;;35.63;28.77;;;15.10;99.90;;;;;;5014928;28;20496;-72
2022/10/11 10:06:37;;;;;;;49.93;32.23;;;15.20;99.90;;;;;;5021646;28;20460;-69
2022/10/11 10:09:25;;;;;;;39.60;34.57;;;15.40;99.90;;;;;;5020742;28;20828;-72
2022/10/11 10:11:52;;;;;;;35.13;31.33;;;15.80;99.90;;;;;;5022002;28;20465;-68
2022/10/11 10:14:23;;;;;;;48.40;34.90;;;16.60;99.90;;;;;;5018709;28;20614;-69
2022/10/11 10:17:00;;;;;;;46.43;36.73;;;17.30;99.90;;;;;;5018002;28;20460;-69
2022/10/11 10:19:29;;;;;;;50.43;35.97;;;18.10;99.90;;;;;;5019612;28;20460;-71
2022/10/11 10:21:57;;;;;;;40.47;34.40;;;18.60;99.90;;;;;;5020395;28;21494;-69
2022/10/11 10:24:35;;;;;;;37.30;33.87;;;18.80;99.90;;;;;;5016815;28;20468;-71
2022/10/11 10:27:08;;;;;;;36.87;32.97;;;18.80;99.90;;;;;;5024413;28;20460;-71
2022/10/11 10:29:36;;;;;;;34.83;31.23;;;19.30;99.90;;;;;;5020381;28;20495;-69
2022/10/11 10:32:11;;;;;;;34.37;30.40;;;19.30;99.90;;;;;;5019152;28;20457;-69
2022/10/11 10:34:50;;;;;;;31.00;27.90;;;19.40;99.90;;;;;;5014786;28;20476;-69
2022/10/11 10:37:24;;;;;;;31.43;28.07;;;19.40;99.90;;;;;;5023359;28;20468;-69
2022/10/11 10:39:56;;;;;;;33.53;29.83;;;19.50;99.90;;;;;;5023231;28;20478;-69
2022/10/11 10:42:23;;;;;;;31.13;27.83;;;19.50;99.90;;;;;;5017587;28;20488;-69
2022/10/11 10:44:55;;;;;;;29.93;26.80;;;20.60;99.90;;;;;;5018760;28;20998;-72
2022/10/11 10:47:42;;;;;;;35.93;26.80;;;21.20;99.90;;;;;;5021719;28;20477;-69
2022/10/11 10:50:18;;;;;;;32.13;26.67;;;21.50;99.90;;;;;;5016150;28;20843;-69
2022/10/11 10:52:58;;;;;;;42.77;35.73;;;21.10;99.90;;;;;;5018282;28;20475;-69
2022/10/11 10:55:33;;;;;;;25.43;23.00;;;21.30;99.90;;;;;;5016344;28;20483;-70
2022/10/11 10:58:09;;;;;;;33.33;23.77;;;20.80;99.90;;;;;;5010275;28;20472;-72
2022/10/11 11:00:43;;;;;;;24.70;22.20;;;21.30;99.90;;;;;;5017758;28;20978;-69
2022/10/11 11:03:16;;;;;;;25.60;22.80;;;21.60;99.90;;;;;;5015968;28;20492;-67
2022/10/11 11:05:49;;;;;;;26.40;23.70;;;22.10;99.90;;;;;;5017342;28;20964;-70
2022/10/11 11:08:25;;;;;;;37.60;25.13;;;22.20;99.90;;;;;;5016297;28;20472;-70
2022/10/11 11:10:57;;;;;;;25.23;21.33;;;21.90;99.90;;;;;;5018348;28;20534;-66
2022/10/11 11:13:32;;;;;;;23.03;20.90;;;21.30;99.90;;;;;;5019206;28;20461;-67
2022/10/11 11:16:13;;;;;;;22.23;19.83;;;22.20;99.60;;;;;;5016490;28;20672;-69
2022/10/11 11:18:47;;;;;;;22.80;20.47;;;22.70;97.50;;;;;;5015767;28;20529;-67
2022/10/11 11:21:30;;;;;;;23.57;21.37;;;21.80;97.30;;;;;;5018815;28;21637;-68
2022/10/11 11:24:07;;;;;;;21.53;19.57;;;21.40;97.90;;;;;;5020124;28;20828;-67
2022/10/11 11:26:41;;;;;;;21.13;19.07;;;22.10;96.00;;;;;;5017815;28;20464;-65
2022/10/11 11:29:20;;;;;;;30.77;27.47;;;21.90;95.60;;;;;;5019567;28;20507;-66
2022/10/11 11:32:05;;;;;;;20.63;18.83;;;22.50;95.10;;;;;;5015632;28;20468;-67
2022/10/11 11:34:38;;;;;;;20.20;18.70;;;23.20;94.00;;;;;;5012428;28;20467;-68
2022/10/11 11:37:14;;;;;;;20.20;18.60;;;22.80;93.00;;;;;;5020013;28;20460;-68
2022/10/11 11:39:45;;;;;;;21.53;19.17;;;22.80;91.60;;;;;;5021304;28;20527;-67
2022/10/11 11:42:18;;;;;;;20.90;19.17;;;22.80;92.10;;;;;;5022269;28;21009;-68
2022/10/11 11:44:48;;;;;;;19.97;18.57;;;23.80;89.90;;;;;;5023719;28;20931;-69
2022/10/11 11:47:20;;;;;;;19.80;18.03;;;24.10;90.10;;;;;;5023809;28;20859;-68
2022/10/11 11:49:52;;;;;;;19.93;17.97;;;23.80;84.50;;;;;;5018992;28;20456;-67
2022/10/11 11:52:28;;;;;;;26.10;18.30;;;23.50;86.80;;;;;;5024273;28;20473;-67
2022/10/11 11:55:05;;;;;;;20.87;16.93;;;23.30;83.50;;;;;;5021728;28;20467;-70
2022/10/11 11:57:44;;;;;;;19.60;17.80;;;22.80;83.90;;;;;;5024305;28;20483;-68
2022/10/11 12:00:15;;;;;;;18.80;17.20;;;22.40;89.50;;;;;;5022693;28;20913;-69
2022/10/11 12:02:49;;;;;;;19.03;17.30;;;22.80;86.40;;;;;;5019662;28;20496;-68
2022/10/11 12:05:20;;;;;;;19.27;17.60;;;23.30;81.90;;;;;;5021704;28;20456;-68
2022/10/11 12:07:52;;;;;;;18.60;17.10;;;21.90;85.40;;;;;;5020511;28;20465;-68
2022/10/11 12:10:27;;;;;;;18.50;17.07;;;21.30;88.90;;;;;;5020001;28;20472;-68
2022/10/11 12:13:16;;;;;;;17.83;16.50;;;20.60;87.50;;;;;;5020909;28;20550;-68
2022/10/11 12:15:57;;;;;;;18.30;16.60;;;20.10;90.00;;;;;;5018903;28;20996;-70
2022/10/11 12:18:25;;;;;;;17.90;16.50;;;19.90;88.70;;;;;;5020655;28;20477;-68
2022/10/11 12:21:04;;;;;;;17.33;15.97;;;19.80;89.90;;;;;;5024579;28;20492;-69
2022/10/11 12:23:47;;;;;;;18.33;16.50;;;19.40;88.20;;;;;;5015400;28;20917;-70
2022/10/11 12:26:40;;;;;;;17.80;16.40;;;19.80;90.10;;;;;;5021585;28;20666;-70
2022/10/11 12:29:46;;;;;;;19.17;17.43;;;20.00;87.90;;;;;;5018315;28;20484;-68
2022/10/11 12:32:52;;;;;;;18.50;16.63;;;19.70;89.20;;;;;;5021304;28;20460;-71
2022/10/11 12:36:00;;;;;;;18.17;16.67;;;19.50;88.20;;;;;;5018772;28;20547;-68
2022/10/11 12:38:30;;;;;;;18.00;16.40;;;19.30;89.70;;;;;;4972863;28;20485;-68
2022/10/11 12:41:00;;;;;;;17.20;15.90;;;19.40;90.10;;;;;;5023583;28;20465;-69
2022/10/11 12:43:31;;;;;;;16.53;15.43;;;19.70;87.70;;;;;;5021218;28;20856;-68
2022/10/11 12:46:39;;;;;;;17.53;16.23;;;20.40;85.80;;;;;;5017108;28;20468;-68
2022/10/11 12:49:23;;;;;;;19.77;17.83;;;21.10;82.80;;;;;;5015001;28;20460;-68
2022/10/11 12:51:57;;;;;;;18.10;16.60;;;20.30;86.70;;;;;;5018602;28;20538;-67
2022/10/11 12:54:42;;;;;;;18.43;16.70;;;19.90;88.80;;;;;;5019780;28;20472;-70
2022/10/11 12:57:47;;;;;;;20.40;16.73;;;20.10;90.30;;;;;;5020684;28;20465;-71